createdAt,value
2019-04-05T00:03:25.781Z,11.58
2019-04-05T00:08:27.338Z,11.65
2019-04-05T00:13:28.895Z,11.66
2019-04-05T00:18:30.531Z,11.75
2019-04-05T00:23:32.152Z,11.80
2019-04-05T00:28:33.859Z,11.81
2019-04-05T00:33:35.432Z,11.77
2019-04-05T00:38:36.972Z,11.79
2019-04-05T00:43:38.551Z,11.68
2019-04-05T00:48:40.207Z,11.68
2019-04-05T00:53:41.787Z,11.49
2019-04-05T00:58:43.365Z,11.25
2019-04-05T01:03:44.975Z,11.22
2019-04-05T01:08:46.866Z,11.11
2019-04-05T01:13:49.061Z,11.37
2019-04-05T01:18:50.653Z,11.40
2019-04-05T01:23:53.100Z,11.41
2019-04-05T01:28:54.838Z,11.22
2019-04-05T01:33:56.666Z,11.15
2019-04-05T01:38:58.314Z,11.25
2019-04-05T01:43:59.910Z,11.15
2019-04-05T01:49:01.585Z,11.01
2019-04-05T01:54:03.364Z,10.83
2019-04-05T01:59:05.067Z,10.91
2019-04-05T02:04:06.714Z,10.74
2019-04-05T02:09:10.323Z,10.77
2019-04-05T02:14:12.109Z,10.91
2019-04-05T02:19:13.784Z,11.05
2019-04-05T02:24:15.455Z,11.05
2019-04-05T02:29:17.230Z,10.96
2019-04-05T02:34:18.781Z,11.03
2019-04-05T02:39:20.381Z,11.12
2019-04-05T02:44:22.372Z,11.20
2019-04-05T02:49:25.879Z,11.14
2019-04-05T02:54:27.988Z,11.10
2019-04-05T02:59:30.609Z,11.06
2019-04-05T03:04:32.636Z,11.05
2019-04-05T03:09:34.489Z,11.10
2019-04-05T03:14:36.591Z,11.09
2019-04-05T03:19:38.347Z,11.09
2019-04-05T03:24:41.178Z,10.90
2019-04-05T03:29:43.023Z,10.76
2019-04-05T03:34:44.743Z,10.81
2019-04-05T03:39:46.425Z,10.71
2019-04-05T03:44:48.110Z,10.91
2019-04-05T03:49:49.854Z,11.05
2019-04-05T03:54:51.660Z,11.14
2019-04-05T03:59:53.345Z,11.18
2019-04-05T04:04:55.081Z,11.16
2019-04-05T04:09:56.639Z,11.10
2019-04-05T04:15:13.743Z,11.07
2019-04-05T04:20:33.788Z,11.04
2019-04-05T04:25:36.269Z,11.02
2019-04-05T04:30:37.909Z,11.06
2019-04-05T04:35:40.091Z,11.09
2019-04-05T04:40:41.894Z,11.13
2019-04-05T04:45:43.567Z,11.11
2019-04-05T04:50:45.907Z,11.05
2019-04-05T04:55:47.567Z,10.95
2019-04-05T05:00:49.326Z,10.82
2019-04-05T05:05:51.087Z,10.77
2019-04-05T05:10:52.782Z,10.69
2019-04-05T05:15:54.437Z,10.61
2019-04-05T05:20:56.243Z,10.52
2019-04-05T05:25:57.898Z,10.47
2019-04-05T05:30:59.592Z,10.54
2019-04-05T05:36:01.464Z,10.78
2019-04-05T05:41:03.133Z,10.83
2019-04-05T05:46:04.805Z,10.85
2019-04-05T05:51:06.458Z,10.85
2019-04-05T05:56:08.031Z,10.86
2019-04-05T06:01:09.642Z,10.88
2019-04-05T06:06:11.256Z,10.79
2019-04-05T06:11:12.936Z,10.80
2019-04-05T06:16:14.804Z,10.82
2019-04-05T06:21:16.500Z,10.89
2019-04-05T06:26:18.190Z,10.82
2019-04-05T06:31:19.740Z,10.79
2019-04-05T06:36:21.275Z,10.80
2019-04-05T06:41:23.043Z,10.79
2019-04-05T06:46:24.730Z,10.75
2019-04-05T06:51:26.448Z,10.74
2019-04-05T06:56:28.092Z,10.74
2019-04-05T07:01:29.794Z,10.80
2019-04-05T07:06:31.585Z,10.83
2019-04-05T07:11:33.155Z,10.85
2019-04-05T07:16:34.838Z,10.85
2019-04-05T07:21:36.573Z,10.91
2019-04-05T07:26:38.150Z,10.93
2019-04-05T07:31:39.871Z,10.95
2019-04-05T07:36:41.694Z,10.96
2019-04-05T07:41:43.272Z,11.01
2019-04-05T07:46:46.511Z,11.04
2019-04-05T07:51:48.531Z,11.09
2019-04-05T07:56:50.266Z,11.11
2019-04-05T08:01:51.987Z,11.21
2019-04-05T08:06:55.082Z,11.24
2019-04-05T08:11:57.427Z,11.38
2019-04-05T08:16:59.167Z,11.61
2019-04-05T08:22:00.879Z,11.70
2019-04-05T08:27:02.802Z,11.80
2019-04-05T08:32:14.001Z,11.93
2019-04-05T08:37:07.870Z,12.02
2019-04-05T08:42:10.963Z,12.36
2019-04-05T08:47:12.839Z,12.40
2019-04-05T08:52:14.435Z,12.31
2019-04-05T08:57:15.988Z,12.30
2019-04-05T09:02:17.551Z,12.40
2019-04-05T09:07:19.099Z,12.51
2019-04-05T09:12:20.688Z,12.62
2019-04-05T09:17:22.271Z,12.63
2019-04-05T09:22:24.098Z,12.72
2019-04-05T09:27:25.704Z,12.86
2019-04-05T09:32:27.258Z,12.94
2019-04-05T09:37:28.930Z,13.05
2019-04-05T09:42:30.465Z,13.21
2019-04-05T09:47:32.020Z,13.29
2019-04-05T09:52:33.679Z,13.29
2019-04-05T09:57:35.281Z,13.27
2019-04-05T10:02:36.873Z,13.21
2019-04-05T10:07:48.727Z,13.16
2019-04-05T10:12:41.870Z,13.36
2019-04-05T10:17:43.436Z,13.61
2019-04-05T10:22:44.977Z,13.76
2019-04-05T10:27:46.575Z,13.98
2019-04-05T10:32:48.130Z,13.96
2019-04-05T10:37:49.650Z,14.06
2019-04-05T10:42:51.208Z,14.31
2019-04-05T10:47:52.804Z,14.48
2019-04-05T10:52:54.436Z,14.43
2019-04-05T10:57:56.093Z,14.55
2019-04-05T11:02:57.743Z,14.56
2019-04-05T11:07:59.405Z,14.65
2019-04-05T11:13:01.013Z,14.60
2019-04-05T11:18:04.607Z,14.45
2019-04-05T11:23:06.334Z,14.91
2019-04-05T11:28:07.890Z,15.20
2019-04-05T11:33:09.629Z,15.31
2019-04-05T11:38:12.837Z,15.46
2019-04-05T11:43:15.041Z,15.37
2019-04-05T11:48:16.676Z,15.38
2019-04-05T11:53:18.372Z,15.18
2019-04-05T11:58:19.912Z,15.19
2019-04-05T12:03:21.749Z,15.18
2019-04-05T12:08:23.283Z,15.00
2019-04-05T12:13:24.826Z,15.04
2019-04-05T12:18:26.405Z,16.57
2019-04-05T12:23:27.944Z,17.61
2019-04-05T12:28:29.568Z,17.19
2019-04-05T12:33:31.110Z,16.30
2019-04-05T12:38:33.410Z,15.55
2019-04-05T12:43:35.117Z,15.32
2019-04-05T12:48:36.663Z,15.27
2019-04-05T12:53:38.210Z,15.28
2019-04-05T12:58:39.749Z,15.35
2019-04-05T13:03:41.319Z,15.95
2019-04-05T13:08:42.927Z,16.37
2019-04-05T13:13:44.637Z,16.41
2019-04-05T13:18:46.173Z,16.31
2019-04-05T13:23:47.709Z,16.09
2019-04-05T13:28:49.331Z,16.56
2019-04-05T13:33:54.351Z,17.65
2019-04-05T13:38:59.456Z,18.09
2019-04-05T13:44:01.592Z,18.03
2019-04-05T13:49:03.014Z,17.12
2019-04-05T13:54:04.646Z,17.48
2019-04-05T13:59:06.203Z,18.41
2019-04-05T14:04:07.757Z,19.01
2019-04-05T14:09:10.389Z,19.43
2019-04-05T14:14:12.657Z,19.50
2019-04-05T14:19:14.256Z,19.76
2019-04-05T14:24:15.902Z,20.17
2019-04-05T14:29:17.562Z,20.18
2019-04-05T14:34:19.253Z,20.03
2019-04-05T14:39:20.991Z,19.87
2019-04-05T14:44:22.537Z,19.61
2019-04-05T14:49:24.185Z,19.52
2019-04-05T14:54:25.729Z,19.52
2019-04-05T14:59:27.266Z,19.75
2019-04-05T15:04:28.807Z,19.72
2019-04-05T15:09:30.346Z,19.73
2019-04-05T15:14:32.585Z,19.63
2019-04-05T15:19:34.312Z,19.81
2019-04-05T15:24:36.095Z,20.01
2019-04-05T15:29:37.638Z,20.04
2019-04-05T15:34:39.291Z,20.18
2019-04-05T15:39:40.829Z,20.85
2019-04-05T15:44:42.377Z,21.23
2019-04-05T15:49:43.937Z,22.03
2019-04-05T15:54:46.603Z,22.73
2019-04-05T15:59:48.211Z,23.50
2019-04-05T16:04:49.752Z,22.77
2019-04-05T16:09:51.527Z,21.59
2019-04-05T16:14:53.095Z,21.85
2019-04-05T16:19:54.730Z,21.65
2019-04-05T16:24:56.331Z,21.87
2019-04-05T16:29:58.343Z,21.96
2019-04-05T16:35:00.034Z,23.39
2019-04-05T16:40:01.779Z,22.02
2019-04-05T16:45:04.868Z,20.44
2019-04-05T16:50:07.249Z,19.14
2019-04-05T16:55:09.745Z,18.03
2019-04-05T17:00:12.066Z,17.52
2019-04-05T17:05:13.744Z,17.36
2019-04-05T17:10:15.388Z,17.15
2019-04-05T17:15:17.051Z,16.90
2019-04-05T17:20:18.617Z,16.61
2019-04-05T17:25:20.253Z,16.26
2019-04-05T17:30:21.947Z,15.80
2019-04-05T17:35:23.865Z,15.46
2019-04-05T17:40:25.917Z,15.28
2019-04-05T17:45:27.785Z,15.05
2019-04-05T17:50:32.367Z,14.87
2019-04-05T17:55:34.019Z,14.69
2019-04-05T18:00:35.863Z,14.54
2019-04-05T18:05:37.434Z,14.39
2019-04-05T18:10:38.988Z,14.28
2019-04-05T18:15:51.851Z,14.11
2019-04-05T18:20:44.019Z,13.95
2019-04-05T18:25:45.564Z,13.90
2019-04-05T18:30:47.128Z,13.87
2019-04-05T18:35:48.673Z,13.78
2019-04-05T18:40:50.619Z,13.74
2019-04-05T18:45:52.147Z,13.69
2019-04-05T18:50:53.695Z,13.54
2019-04-05T18:55:55.224Z,13.54
2019-04-05T19:00:56.771Z,13.40
2019-04-05T19:05:58.332Z,13.37
2019-04-05T19:11:00.014Z,13.30
2019-04-05T19:16:01.691Z,13.18
2019-04-05T19:21:03.240Z,13.09
2019-04-05T19:26:04.907Z,13.05
2019-04-05T19:51:20.567Z,12.98
2019-04-05T19:56:22.120Z,12.95
2019-04-05T20:01:23.747Z,12.92
2019-04-05T20:06:25.424Z,12.82
2019-04-05T20:11:26.987Z,12.78
2019-04-05T20:16:28.762Z,12.67
2019-04-05T20:21:30.447Z,12.55
2019-04-05T20:26:31.999Z,12.49
2019-04-05T20:31:33.537Z,12.51
2019-04-05T20:36:35.221Z,12.46
2019-04-05T20:41:36.824Z,12.40
2019-04-05T20:46:39.316Z,12.33
2019-04-05T20:51:40.880Z,12.26
2019-04-05T20:56:42.427Z,12.25
2019-04-05T21:01:43.975Z,12.18
2019-04-05T21:06:45.566Z,12.09
2019-04-05T21:11:47.237Z,12.04
2019-04-05T21:16:48.919Z,11.94
2019-04-05T21:21:50.523Z,11.87
2019-04-05T21:26:52.089Z,11.85
2019-04-05T21:31:53.682Z,11.78
2019-04-05T21:36:55.371Z,11.68
2019-04-05T21:41:57.138Z,11.61
2019-04-05T21:46:58.816Z,11.56
2019-04-05T21:52:00.521Z,11.52
2019-04-05T21:57:02.209Z,11.43
2019-04-05T22:02:04.247Z,11.36
2019-04-05T22:07:06.010Z,11.34
2019-04-05T22:12:07.849Z,11.32
2019-04-05T22:17:09.549Z,11.31
2019-04-05T22:22:11.403Z,11.28
2019-04-05T22:27:13.100Z,11.21
2019-04-05T22:32:14.692Z,11.17
2019-04-05T22:37:16.447Z,11.11
2019-04-05T22:42:18.126Z,11.07
2019-04-05T22:47:19.885Z,11.04
2019-04-05T22:52:21.635Z,11.01
2019-04-05T22:57:23.357Z,10.91
2019-04-05T23:02:25.128Z,10.86
2019-04-05T23:07:26.829Z,10.77
2019-04-05T23:12:28.578Z,10.74
2019-04-05T23:17:30.278Z,10.67
2019-04-05T23:22:32.028Z,10.62
2019-04-05T23:27:33.797Z,10.65
2019-04-05T23:32:35.561Z,10.63
2019-04-05T23:37:37.301Z,10.62
2019-04-05T23:42:38.989Z,10.59
2019-04-05T23:47:40.727Z,10.58
2019-04-05T23:52:42.339Z,10.54
2019-04-05T23:57:44.103Z,10.48
